Time;durP1;ratioP1;P1;durP2;ratioP2;P2;SDS_P1;SDS_P2;PMS_P1;PMS_P2;Temp;Humidity;BMP_temperature;BMP_pressure;BME280_temperature;BME280_humidity;BME280_pressure;Samples;Min_cycle;Max_cycle;Signal;HPM_P1;HPM_P2
2023/03/03 00:04:36;;;;;;;;;;;16.20;57.90;;;;;;10273753;28;94556;-70
2023/03/03 00:09:38;;;;;;;;;;;16.20;57.80;;;;;;10274199;28;94075;-71
2023/03/03 00:14:40;;;;;;;;;;;16.10;57.80;;;;;;10290985;28;94075;-70
2023/03/03 00:19:46;;;;;;;;;;;16.10;57.80;;;;;;10290980;28;93651;-70
2023/03/03 00:24:48;;;;;;;;;;;16.10;57.70;;;;;;10290586;28;92802;-71
2023/03/03 00:29:52;;;;;;;;;;;16.10;57.70;;;;;;10290617;28;93235;-71
2023/03/03 00:34:55;;;;;;;;;;;16.10;57.70;;;;;;10290345;28;93263;-71
2023/03/03 00:40:00;;;;;;;;;;;16.00;57.60;;;;;;10287288;28;96318;-71
2023/03/03 00:45:16;;;;;;;;;;;16.00;57.60;;;;;;10290481;28;94895;-71
2023/03/03 00:50:33;;;;;;;;;;;16.00;57.60;;;;;;10289747;28;94257;-71
2023/03/03 00:55:36;;;;;;;;;;;16.00;57.50;;;;;;10290667;28;94445;-71
2023/03/03 01:00:38;;;;;;;;;;;16.00;57.60;;;;;;10289928;28;93694;-70
2023/03/03 01:05:40;;;;;;;;;;;15.90;57.50;;;;;;10289228;28;93477;-71
2023/03/03 01:10:44;;;;;;;;;;;16.00;57.50;;;;;;10289458;28;95047;-70
2023/03/03 01:15:46;;;;;;;;;;;15.90;57.60;;;;;;10273821;28;92840;-71
2023/03/03 01:20:48;;;;;;;;;;;15.90;57.60;;;;;;10272265;28;95811;-69
2023/03/03 01:25:49;;;;;;;;;;;15.90;57.60;;;;;;10289265;28;93476;-71
2023/03/03 01:30:51;;;;;;;;;;;15.90;57.70;;;;;;10286570;28;96617;-70
2023/03/03 01:35:53;;;;;;;;;;;15.90;57.70;;;;;;10287613;28;93599;-71
2023/03/03 01:40:56;;;;;;;;;;;15.80;57.70;;;;;;10289308;28;94485;-71
2023/03/03 01:45:58;;;;;;;;;;;15.90;57.70;;;;;;10288221;28;93618;-71
2023/03/03 01:51:02;;;;;;;;;;;15.80;57.60;;;;;;10288073;28;93366;-71
2023/03/03 01:56:05;;;;;;;;;;;15.80;57.70;;;;;;10288156;28;93483;-70
2023/03/03 02:01:10;;;;;;;;;;;15.80;57.70;;;;;;10288269;28;93466;-71
2023/03/03 02:06:14;;;;;;;;;;;15.80;57.60;;;;;;10289015;28;94188;-71
2023/03/03 02:11:17;;;;;;;;;;;15.80;57.60;;;;;;10288670;28;94440;-71
2023/03/03 02:16:18;;;;;;;;;;;15.80;57.50;;;;;;10288381;28;94058;-71
2023/03/03 02:21:21;;;;;;;;;;;15.80;57.50;;;;;;10290615;28;97531;-71
2023/03/03 02:26:25;;;;;;;;;;;15.80;57.50;;;;;;10295604;28;93882;-71
2023/03/03 02:31:27;;;;;;;;;;;15.80;57.50;;;;;;10294735;28;94668;-71
2023/03/03 02:36:33;;;;;;;;;;;15.80;57.40;;;;;;10295095;28;94608;-71
2023/03/03 02:41:54;;;;;;;;;;;15.70;57.30;;;;;;10293672;28;93786;-72
2023/03/03 02:46:56;;;;;;;;;;;15.70;57.40;;;;;;10293950;28;94590;-72
2023/03/03 02:51:58;;;;;;;;;;;15.70;57.40;;;;;;10293073;28;93450;-71
2023/03/03 02:57:00;;;;;;;;;;;15.70;57.30;;;;;;10294402;28;93480;-72
2023/03/03 03:02:02;;;;;;;;;;;15.70;57.30;;;;;;10293826;28;94295;-72
2023/03/03 03:07:04;;;;;;;;;;;15.70;57.20;;;;;;10293007;28;94574;-72
2023/03/03 03:12:07;;;;;;;;;;;15.60;57.30;;;;;;10256611;28;95405;-71
2023/03/03 03:17:10;;;;;;;;;;;15.70;57.30;;;;;;10292462;28;93624;-72
2023/03/03 03:22:12;;;;;;;;;;;15.60;57.20;;;;;;10293585;28;94461;-71
2023/03/03 03:27:13;;;;;;;;;;;15.60;57.30;;;;;;10292639;28;94832;-72
2023/03/03 03:32:16;;;;;;;;;;;15.60;57.30;;;;;;10274540;28;94372;-71
2023/03/03 03:37:18;;;;;;;;;;;15.60;57.30;;;;;;10292883;28;93470;-72
2023/03/03 03:42:20;;;;;;;;;;;15.60;57.30;;;;;;10292078;28;92878;-72
2023/03/03 03:47:22;;;;;;;;;;;15.50;57.20;;;;;;10292340;28;94152;-72
2023/03/03 03:52:24;;;;;;;;;;;15.50;57.30;;;;;;10291894;28;94722;-70
2023/03/03 03:57:26;;;;;;;;;;;15.60;57.20;;;;;;10291583;28;93137;-70
2023/03/03 04:02:27;;;;;;;;;;;15.60;57.20;;;;;;10288816;28;95839;-70
2023/03/03 04:07:30;;;;;;;;;;;15.60;57.20;;;;;;10291717;28;94266;-70
2023/03/03 04:12:37;;;;;;;;;;;15.60;57.10;;;;;;10292122;28;95374;-71
2023/03/03 04:17:39;;;;;;;;;;;15.60;57.10;;;;;;10291246;28;94506;-71
2023/03/03 04:22:41;;;;;;;;;;;15.60;57.10;;;;;;10290235;28;94589;-71
2023/03/03 04:27:43;;;;;;;;;;;15.60;57.00;;;;;;10273310;28;93474;-71
2023/03/03 04:32:45;;;;;;;;;;;15.60;57.00;;;;;;10290767;28;94836;-70
2023/03/03 04:37:47;;;;;;;;;;;15.50;57.00;;;;;;10291254;28;92322;-71
2023/03/03 04:42:49;;;;;;;;;;;15.50;57.00;;;;;;10290213;28;94439;-71
2023/03/03 06:06:41;;;;;;;;;;;16.10;56.40;;;;;;10201738;28;94539;-75
2023/03/03 06:11:43;;;;;;;;;;;16.30;55.80;;;;;;10190221;28;93261;-75
2023/03/03 06:16:44;;;;;;;;;;;16.40;55.60;;;;;;10206150;28;93483;-75
2023/03/03 06:21:46;;;;;;;;;;;16.40;55.30;;;;;;10203365;28;95276;-75
2023/03/03 06:26:47;;;;;;;;;;;16.50;55.70;;;;;;10185649;28;93508;-74
2023/03/03 06:31:49;;;;;;;;;;;16.40;55.20;;;;;;10205511;28;94379;-75
2023/03/03 06:36:51;;;;;;;;;;;16.40;55.40;;;;;;10205193;28;92476;-75
2023/03/03 06:41:53;;;;;;;;;;;16.40;55.70;;;;;;10207204;28;93504;-75
2023/03/03 06:46:56;;;;;;;;;;;16.40;55.80;;;;;;10216020;28;94915;-75
2023/03/03 06:52:00;;;;;;;;;;;16.50;55.90;;;;;;10268427;28;96884;-75
2023/03/03 06:57:07;;;;;;;;;;;16.50;56.00;;;;;;10288662;28;93336;-75
2023/03/03 07:02:14;;;;;;;;;;;16.40;56.10;;;;;;10287617;28;93664;-75
2023/03/03 07:07:19;;;;;;;;;;;16.40;56.30;;;;;;10292374;28;94823;-74
2023/03/03 07:12:22;;;;;;;;;;;16.50;56.40;;;;;;10296203;28;94934;-74
2023/03/03 07:17:24;;;;;;;;;;;16.50;56.50;;;;;;10279067;28;93303;-75
2023/03/03 07:22:26;;;;;;;;;;;16.50;56.60;;;;;;10277962;28;93859;-75
2023/03/03 07:27:29;;;;;;;;;;;16.40;56.70;;;;;;10293816;28;92300;-75
2023/03/03 07:32:38;;;;;;;;;;;16.50;56.80;;;;;;10292717;28;93448;-75
2023/03/03 07:37:41;;;;;;;;;;;16.50;56.80;;;;;;10292438;28;93303;-75
2023/03/03 07:42:43;;;;;;;;;;;16.50;56.80;;;;;;10291143;28;96910;-75
2023/03/03 07:47:45;;;;;;;;;;;16.50;56.80;;;;;;10292235;28;94394;-75
2023/03/03 07:52:55;;;;;;;;;;;16.50;57.00;;;;;;10293338;28;94583;-75
2023/03/03 07:58:15;;;;;;;;;;;16.50;57.10;;;;;;10292906;28;94490;-75
2023/03/03 08:03:18;;;;;;;;;;;16.50;57.00;;;;;;10290436;28;94567;-75
2023/03/03 08:08:28;;;;;;;;;;;16.50;57.10;;;;;;10288521;28;94646;-75
2023/03/03 08:13:33;;;;;;;;;;;16.50;57.20;;;;;;10288563;28;93572;-76
2023/03/03 08:18:39;;;;;;;;;;;16.50;57.30;;;;;;10291039;28;92065;-76
2023/03/03 08:23:41;;;;;;;;;;;16.50;57.40;;;;;;10274751;28;94624;-72
2023/03/03 08:28:43;;;;;;;;;;;16.60;57.30;;;;;;10286974;28;94133;-75
2023/03/03 08:33:45;;;;;;;;;;;16.60;57.50;;;;;;10264220;28;94960;-74
2023/03/03 08:38:46;;;;;;;;;;;16.60;58.10;;;;;;10285937;28;94496;-71
2023/03/03 08:43:48;;;;;;;;;;;16.60;58.50;;;;;;10283695;28;93377;-70
2023/03/03 08:48:50;;;;;;;;;;;16.60;58.90;;;;;;10285790;28;93524;-68
2023/03/03 08:53:51;;;;;;;;;;;16.70;59.10;;;;;;10284989;28;94038;-71
2023/03/03 08:58:53;;;;;;;;;;;16.70;59.20;;;;;;10284650;28;94146;-78
2023/03/03 09:04:03;;;;;;;;;;;16.70;59.70;;;;;;10283508;28;94665;-74
2023/03/03 09:09:05;;;;;;;;;;;16.70;59.90;;;;;;10270956;28;92288;-76
2023/03/03 09:14:06;;;;;;;;;;;16.70;59.80;;;;;;10287612;28;93926;-78
2023/03/03 09:19:20;;;;;;;;;;;16.70;60.00;;;;;;10287550;28;93179;-73
2023/03/03 09:24:24;;;;;;;;;;;16.70;60.20;;;;;;10285044;28;96989;-72
2023/03/03 09:29:28;;;;;;;;;;;16.70;60.60;;;;;;10271125;28;93239;-76
2023/03/03 09:34:33;;;;;;;;;;;16.80;60.40;;;;;;10288765;28;93767;-76
2023/03/03 09:39:35;;;;;;;;;;;16.70;59.80;;;;;;10288775;28;93797;-76
2023/03/03 09:44:55;;;;;;;;;;;16.70;59.70;;;;;;10287778;28;93621;-76
2023/03/03 09:50:20;;;;;;;;;;;16.70;59.50;;;;;;10289326;28;94216;-76
2023/03/03 09:55:24;;;;;;;;;;;16.70;59.40;;;;;;10290889;28;93640;-76
2023/03/03 10:00:26;;;;;;;;;;;16.80;59.30;;;;;;10296412;28;93848;-77
2023/03/03 10:05:54;;;;;;;;;;;16.90;59.10;;;;;;10292555;28;94694;-76
2023/03/03 10:11:01;;;;;;;;;;;16.90;59.00;;;;;;10285690;28;93493;-77
2023/03/03 10:16:09;;;;;;;;;;;17.00;58.70;;;;;;10286323;28;96796;-77
2023/03/03 10:21:16;;;;;;;;;;;17.00;58.50;;;;;;10289047;28;94382;-77
2023/03/03 10:26:36;;;;;;;;;;;17.10;58.30;;;;;;10288032;28;94577;-77
2023/03/03 10:32:05;;;;;;;;;;;17.00;58.10;;;;;;10288104;28;94937;-77
2023/03/03 10:37:16;;;;;;;;;;;16.90;58.10;;;;;;10287582;28;94778;-77
2023/03/03 10:42:21;;;;;;;;;;;16.90;58.30;;;;;;10292718;28;92932;-77
2023/03/03 10:47:22;;;;;;;;;;;16.90;58.40;;;;;;10293445;28;93295;-77
2023/03/03 10:52:27;;;;;;;;;;;16.90;58.20;;;;;;10294944;28;93583;-77
2023/03/03 10:57:47;;;;;;;;;;;16.90;58.30;;;;;;10293125;28;93675;-77
2023/03/03 11:03:02;;;;;;;;;;;16.90;58.20;;;;;;10294413;28;94534;-77
2023/03/03 11:08:08;;;;;;;;;;;16.80;58.10;;;;;;10291624;28;96861;-77
2023/03/03 11:13:17;;;;;;;;;;;16.80;58.10;;;;;;10294102;28;92517;-77
2023/03/03 11:18:25;;;;;;;;;;;16.70;58.10;;;;;;10293394;28;94256;-77
2023/03/03 11:23:38;;;;;;;;;;;16.70;58.20;;;;;;10293631;28;93328;-77
2023/03/03 11:28:43;;;;;;;;;;;16.60;58.20;;;;;;10292952;28;93636;-78
2023/03/03 11:34:00;;;;;;;;;;;16.60;58.20;;;;;;10276108;28;95174;-77
2023/03/03 11:39:09;;;;;;;;;;;16.50;58.30;;;;;;10292872;28;94461;-77
2023/03/03 11:44:17;;;;;;;;;;;16.50;58.30;;;;;;10293697;28;92049;-77
2023/03/03 11:49:32;;;;;;;;;;;16.50;58.40;;;;;;10291592;28;93778;-77
2023/03/03 11:54:41;;;;;;;;;;;16.40;58.40;;;;;;10291870;28;94100;-77
2023/03/03 11:59:54;;;;;;;;;;;16.30;58.50;;;;;;10288620;28;95650;-77
2023/03/03 12:05:05;;;;;;;;;;;16.30;58.50;;;;;;10291951;28;94651;-77
2023/03/03 12:10:06;;;;;;;;;;;16.30;58.50;;;;;;10291477;28;94640;-76
2023/03/03 12:15:08;;;;;;;;;;;16.30;58.60;;;;;;10292564;28;93108;-77
2023/03/03 12:20:10;;;;;;;;;;;16.30;58.60;;;;;;10291461;28;93271;-76
2023/03/03 12:25:20;;;;;;;;;;;16.30;58.50;;;;;;10291251;28;93595;-76
2023/03/03 12:30:25;;;;;;;;;;;16.20;58.50;;;;;;10292124;28;94473;-77
2023/03/03 12:35:29;;;;;;;;;;;16.20;58.50;;;;;;10291790;28;92660;-77
2023/03/03 12:40:38;;;;;;;;;;;16.10;58.40;;;;;;10292172;28;93203;-77
2023/03/03 12:45:46;;;;;;;;;;;16.10;58.50;;;;;;10275273;28;94589;-76
2023/03/03 12:51:13;;;;;;;;;;;16.10;58.40;;;;;;10289883;28;96036;-77
2023/03/03 12:56:35;;;;;;;;;;;16.10;58.30;;;;;;10290915;28;93230;-77
2023/03/03 13:02:02;;;;;;;;;;;16.00;58.20;;;;;;10232667;28;93445;-76
2023/03/03 13:07:04;;;;;;;;;;;16.00;58.10;;;;;;10270843;28;93533;-76
2023/03/03 13:12:06;;;;;;;;;;;16.00;58.10;;;;;;10290646;28;92636;-77
2023/03/03 13:17:08;;;;;;;;;;;16.00;58.10;;;;;;10290183;28;94453;-76
2023/03/03 13:22:14;;;;;;;;;;;16.00;58.10;;;;;;10289024;28;92962;-76
2023/03/03 13:27:17;;;;;;;;;;;15.90;58.10;;;;;;10290963;28;93757;-76
2023/03/03 13:32:21;;;;;;;;;;;15.90;58.30;;;;;;10289041;28;93866;-76
2023/03/03 13:37:26;;;;;;;;;;;16.00;58.20;;;;;;10289011;28;93557;-77
2023/03/03 13:42:39;;;;;;;;;;;16.00;58.20;;;;;;10268096;28;96323;-77
2023/03/03 13:47:43;;;;;;;;;;;16.00;58.20;;;;;;10289829;28;94528;-76
2023/03/03 13:53:10;;;;;;;;;;;15.90;58.20;;;;;;10290003;28;93716;-76
2023/03/03 13:58:21;;;;;;;;;;;15.90;58.20;;;;;;10288952;28;93138;-77
2023/03/03 14:03:34;;;;;;;;;;;15.90;58.10;;;;;;10289097;28;93339;-77
2023/03/03 14:09:05;;;;;;;;;;;16.00;58.10;;;;;;10270324;28;93750;-71
2023/03/03 14:14:14;;;;;;;;;;;16.00;58.10;;;;;;10252539;28;93387;-71
2023/03/03 14:19:22;;;;;;;;;;;16.10;58.10;;;;;;10287729;28;93232;-71
2023/03/03 14:24:25;;;;;;;;;;;16.10;58.00;;;;;;10287680;28;93149;-71
2023/03/03 14:29:26;;;;;;;;;;;16.00;57.90;;;;;;10287065;28;92571;-71
2023/03/03 14:34:40;;;;;;;;;;;16.00;57.80;;;;;;10267383;28;96556;-71
2023/03/03 14:39:43;;;;;;;;;;;16.00;57.90;;;;;;10287424;28;93265;-71
2023/03/03 14:44:45;;;;;;;;;;;15.90;57.80;;;;;;10287971;28;96107;-71
2023/03/03 14:49:47;;;;;;;;;;;15.90;57.90;;;;;;10286683;28;93946;-77
2023/03/03 14:54:50;;;;;;;;;;;15.90;57.80;;;;;;10288014;28;94556;-76
2023/03/03 14:59:55;;;;;;;;;;;15.90;58.00;;;;;;10286555;28;93423;-77
2023/03/03 15:05:12;;;;;;;;;;;15.90;58.00;;;;;;10288256;28;94508;-77
2023/03/03 15:10:25;;;;;;;;;;;15.90;58.00;;;;;;10270665;28;93839;-76
2023/03/03 15:15:28;;;;;;;;;;;15.90;58.10;;;;;;10269627;28;93333;-76
2023/03/03 15:21:05;;;;;;;;;;;15.80;57.90;;;;;;10286734;28;93957;-76
2023/03/03 15:26:22;;;;;;;;;;;15.80;58.00;;;;;;10187144;28;95656;-76
2023/03/03 15:31:42;;;;;;;;;;;15.80;57.90;;;;;;10294587;28;93415;-76
2023/03/03 15:36:51;;;;;;;;;;;15.80;57.80;;;;;;10278524;28;93809;-77
2023/03/03 15:41:56;;;;;;;;;;;15.80;58.00;;;;;;10292656;28;93152;-76
2023/03/03 15:47:11;;;;;;;;;;;15.80;57.90;;;;;;10292340;28;96192;-76
2023/03/03 15:52:36;;;;;;;;;;;15.80;57.90;;;;;;10292833;28;94339;-77
2023/03/03 15:57:39;;;;;;;;;;;15.70;57.80;;;;;;10293157;28;93840;-77
2023/03/03 16:02:47;;;;;;;;;;;15.70;57.80;;;;;;10293398;28;93512;-76
2023/03/03 16:08:08;;;;;;;;;;;15.70;57.70;;;;;;10274025;28;93437;-76
2023/03/03 16:13:29;;;;;;;;;;;15.70;57.80;;;;;;10291344;28;93230;-77
2023/03/03 16:18:51;;;;;;;;;;;15.70;57.80;;;;;;10271719;28;95014;-77
2023/03/03 16:23:57;;;;;;;;;;;15.70;57.80;;;;;;10291188;28;94330;-77
2023/03/03 16:29:17;;;;;;;;;;;15.60;57.70;;;;;;10291452;28;93468;-76
2023/03/03 16:34:38;;;;;;;;;;;15.60;57.80;;;;;;10291555;28;93505;-77
2023/03/03 16:40:06;;;;;;;;;;;15.60;57.80;;;;;;10272727;28;94379;-77
2023/03/03 16:45:26;;;;;;;;;;;15.60;57.70;;;;;;10259776;28;93627;-77
2023/03/03 16:50:36;;;;;;;;;;;15.60;57.70;;;;;;10289218;28;93904;-77
2023/03/03 16:55:56;;;;;;;;;;;15.50;57.60;;;;;;10290642;28;92455;-77
2023/03/03 17:01:13;;;;;;;;;;;15.50;57.60;;;;;;10289398;28;93769;-77
2023/03/03 17:06:17;;;;;;;;;;;15.50;57.70;;;;;;10290638;28;92893;-76
2023/03/03 17:11:25;;;;;;;;;;;15.50;57.60;;;;;;10287389;28;96382;-77
2023/03/03 17:16:33;;;;;;;;;;;15.50;57.60;;;;;;10289573;28;93193;-77
2023/03/03 17:22:04;;;;;;;;;;;15.50;57.60;;;;;;10273891;28;93327;-77
2023/03/03 17:27:21;;;;;;;;;;;15.50;57.60;;;;;;10290115;28;94307;-76
2023/03/03 17:32:52;;;;;;;;;;;15.40;57.60;;;;;;10290155;28;93474;-77
2023/03/03 17:38:14;;;;;;;;;;;15.50;57.70;;;;;;10218852;28;93512;-77
2023/03/03 17:43:22;;;;;;;;;;;15.50;57.70;;;;;;10289096;28;93710;-77
2023/03/03 17:48:47;;;;;;;;;;;15.50;57.70;;;;;;10289649;28;93576;-75
2023/03/03 17:54:07;;;;;;;;;;;15.40;57.50;;;;;;10277962;28;94080;-76
2023/03/03 17:59:12;;;;;;;;;;;15.50;57.60;;;;;;10289291;28;94446;-71
2023/03/03 18:04:25;;;;;;;;;;;15.70;56.50;;;;;;10285827;28;96988;-69
2023/03/03 18:09:29;;;;;;;;;;;16.00;56.10;;;;;;10287303;28;93428;-72
2023/03/03 18:14:50;;;;;;;;;;;16.40;56.20;;;;;;10288380;28;94374;-71
2023/03/03 18:20:06;;;;;;;;;;;16.80;55.80;;;;;;10280133;28;93464;-72
2023/03/03 18:25:12;;;;;;;;;;;17.20;55.50;;;;;;10272899;28;93458;-69
2023/03/03 18:30:19;;;;;;;;;;;17.50;55.30;;;;;;10272219;28;92822;-70
2023/03/03 18:35:26;;;;;;;;;;;17.70;55.20;;;;;;10273727;28;94446;-72
2023/03/03 18:40:30;;;;;;;;;;;17.80;55.70;;;;;;10274907;28;94061;-73
2023/03/03 18:45:32;;;;;;;;;;;17.80;55.90;;;;;;10271835;28;93758;-72
2023/03/03 18:50:34;;;;;;;;;;;17.80;56.00;;;;;;10269463;28;94486;-71
2023/03/03 18:55:55;;;;;;;;;;;17.70;56.30;;;;;;10270188;28;95493;-71
2023/03/03 19:00:58;;;;;;;;;;;17.70;56.60;;;;;;10273605;28;93828;-71
2023/03/03 19:06:01;;;;;;;;;;;17.70;57.00;;;;;;10282209;28;93936;-69
2023/03/03 19:11:03;;;;;;;;;;;17.80;57.10;;;;;;10264370;28;94503;-69
2023/03/03 19:16:06;;;;;;;;;;;17.90;57.10;;;;;;10268386;28;93624;-69
2023/03/03 19:21:10;;;;;;;;;;;17.90;57.30;;;;;;10278772;28;93080;-69
2023/03/03 19:26:18;;;;;;;;;;;17.90;57.80;;;;;;10277946;28;93504;-70
2023/03/03 19:31:25;;;;;;;;;;;17.90;57.80;;;;;;10277247;28;93475;-69
2023/03/03 19:36:35;;;;;;;;;;;18.00;57.90;;;;;;10289912;28;94810;-71
2023/03/03 19:41:36;;;;;;;;;;;18.10;57.70;;;;;;10290295;28;93122;-72
2023/03/03 19:46:41;;;;;;;;;;;18.10;57.40;;;;;;10288124;28;95674;-70
2023/03/03 19:51:49;;;;;;;;;;;18.10;58.60;;;;;;10290818;28;93454;-75
2023/03/03 19:56:54;;;;;;;;;;;18.10;58.80;;;;;;10292532;28;94943;-72
2023/03/03 20:01:58;;;;;;;;;;;18.00;59.20;;;;;;10277749;28;93843;-71
2023/03/03 20:07:10;;;;;;;;;;;18.10;58.40;;;;;;10267691;28;93999;-72
2023/03/03 20:12:20;;;;;;;;;;;18.20;58.30;;;;;;10265066;28;93662;-71
2023/03/03 20:17:21;;;;;;;;;;;18.20;58.10;;;;;;10274169;28;95008;-71
2023/03/03 20:22:59;;;;;;;;;;;18.20;58.10;;;;;;10277052;28;92763;-69
2023/03/03 20:28:09;;;;;;;;;;;18.20;58.20;;;;;;10192222;28;93643;-71
2023/03/03 20:33:20;;;;;;;;;;;18.10;58.50;;;;;;10276214;28;94213;-71
2023/03/03 20:38:39;;;;;;;;;;;18.00;58.90;;;;;;10274113;28;95719;-71
2023/03/03 20:43:55;;;;;;;;;;;18.00;59.10;;;;;;10275644;28;93637;-70
2023/03/03 20:49:09;;;;;;;;;;;17.90;59.10;;;;;;10273741;28;94614;-70
2023/03/03 20:54:12;;;;;;;;;;;17.80;59.30;;;;;;10275909;28;93448;-70
2023/03/03 20:59:20;;;;;;;;;;;17.70;60.40;;;;;;10276000;28;94453;-70
2023/03/03 21:04:26;;;;;;;;;;;17.60;59.60;;;;;;10266408;28;94526;-70
2023/03/03 21:09:37;;;;;;;;;;;17.50;59.80;;;;;;10260348;28;95107;-70
2023/03/03 21:14:39;;;;;;;;;;;17.50;60.00;;;;;;10275446;28;93155;-70
2023/03/03 21:19:41;;;;;;;;;;;17.40;60.20;;;;;;10273826;28;94568;-73
2023/03/03 21:24:46;;;;;;;;;;;17.40;60.30;;;;;;10270762;28;94054;-72
2023/03/03 21:29:59;;;;;;;;;;;17.30;60.70;;;;;;10270682;28;96320;-72
2023/03/03 21:35:06;;;;;;;;;;;17.30;60.90;;;;;;10274562;28;94161;-72
2023/03/03 21:40:12;;;;;;;;;;;17.20;61.10;;;;;;10272893;28;93439;-72
2023/03/03 21:45:15;;;;;;;;;;;17.20;61.20;;;;;;10274392;28;93313;-72
2023/03/03 21:50:20;;;;;;;;;;;17.10;61.20;;;;;;10259554;28;94670;-72
2023/03/03 21:55:22;;;;;;;;;;;17.10;61.40;;;;;;10273919;28;93943;-72
2023/03/03 22:00:27;;;;;;;;;;;17.10;62.60;;;;;;10272521;28;93407;-72
2023/03/03 22:05:29;;;;;;;;;;;17.10;61.60;;;;;;10273034;28;93448;-72
2023/03/03 22:10:30;;;;;;;;;;;17.00;61.70;;;;;;10269646;28;93932;-71
2023/03/03 22:15:32;;;;;;;;;;;17.00;61.70;;;;;;10272302;28;93237;-72
2023/03/03 22:20:34;;;;;;;;;;;17.00;61.70;;;;;;10248020;28;95919;-71
2023/03/03 22:25:36;;;;;;;;;;;16.90;61.80;;;;;;10273573;28;93643;-71
2023/03/03 22:30:40;;;;;;;;;;;16.90;61.70;;;;;;10284466;28;114899;-72
2023/03/03 22:35:41;;;;;;;;;;;16.90;61.50;;;;;;10287494;28;93349;-72
2023/03/03 22:40:43;;;;;;;;;;;16.80;61.40;;;;;;10293167;28;94509;-72
2023/03/03 22:45:45;;;;;;;;;;;16.80;61.40;;;;;;10293914;28;93279;-71
2023/03/03 22:50:47;;;;;;;;;;;16.70;61.30;;;;;;10293974;28;94526;-72
2023/03/03 22:55:49;;;;;;;;;;;16.60;61.20;;;;;;10293942;28;92780;-72
2023/03/03 23:00:52;;;;;;;;;;;16.60;61.10;;;;;;10293673;28;93440;-72
2023/03/03 23:05:53;;;;;;;;;;;16.60;60.90;;;;;;10292784;28;93664;-72
2023/03/03 23:10:55;;;;;;;;;;;16.50;60.90;;;;;;10273030;28;96926;-72
2023/03/03 23:15:58;;;;;;;;;;;16.50;60.70;;;;;;10293075;28;94456;-72
2023/03/03 23:21:00;;;;;;;;;;;16.50;60.70;;;;;;10292561;28;93080;-71
2023/03/03 23:26:02;;;;;;;;;;;16.40;60.50;;;;;;10291792;28;93031;-71
2023/03/03 23:31:04;;;;;;;;;;;16.40;60.50;;;;;;10292740;28;94570;-71
2023/03/03 23:36:06;;;;;;;;;;;16.30;60.40;;;;;;10292801;28;94952;-72
2023/03/03 23:41:08;;;;;;;;;;;16.30;60.20;;;;;;10292769;28;94658;-72
2023/03/03 23:46:10;;;;;;;;;;;16.30;60.20;;;;;;10292419;28;93126;-72
2023/03/03 23:51:12;;;;;;;;;;;16.20;60.10;;;;;;10290067;28;93579;-69
2023/03/03 23:56:13;;;;;;;;;;;16.20;60.00;;;;;;10291676;28;94556;-73
